createdAt,value
2022-08-03T00:00:36.621Z,99627.97
2022-08-03T00:03:05.151Z,99624.03
2022-08-03T00:05:34.134Z,99624.63
2022-08-03T00:08:02.461Z,99621.94
2022-08-03T00:10:32.394Z,99618.22
2022-08-03T00:13:00.778Z,99612.41
2022-08-03T00:15:29.151Z,99611.81
2022-08-03T00:17:57.462Z,99603.75
2022-08-03T00:20:26.183Z,99604.81
2022-08-03T00:22:54.416Z,99605.81
2022-08-03T00:25:22.729Z,99604.81
2022-08-03T00:27:52.567Z,99607.28
2022-08-03T00:30:20.957Z,99606.66
2022-08-03T00:32:49.579Z,99607.09
2022-08-03T00:35:29.352Z,99606.88
2022-08-03T00:38:05.559Z,99596.13
2022-08-03T00:40:34.457Z,99602.31
2022-08-03T00:43:06.930Z,99601.91
2022-08-03T00:45:37.196Z,99609.97
2022-08-03T00:48:07.087Z,99599.88
2022-08-03T00:50:55.741Z,99596.56
2022-08-03T00:53:24.147Z,99598.59
2022-08-03T00:55:52.587Z,99603.34
2022-08-03T00:58:22.574Z,99600.47
2022-08-03T01:00:51.169Z,99596.34
2022-08-03T01:03:19.503Z,99596.94
2022-08-03T01:05:57.373Z,99598.19
2022-08-03T01:08:38.151Z,99603.78
2022-08-03T01:11:14.732Z,99611.03
2022-08-03T01:14:00.289Z,99610.56
2022-08-03T01:16:38.562Z,99607.09
2022-08-03T01:19:26.732Z,99607.09
2022-08-03T01:22:07.145Z,99608.94
2022-08-03T01:24:45.713Z,99605.66
2022-08-03T01:27:19.886Z,99604.63
2022-08-03T01:30:03.009Z,99596.94
2022-08-03T01:32:52.496Z,99605.19
2022-08-03T01:35:35.435Z,99593.03
2022-08-03T01:38:13.085Z,99598.19
2022-08-03T01:40:43.025Z,99605.19
2022-08-03T01:44:01.242Z,99597.81
2022-08-03T01:46:11.007Z,99596.97
2022-08-03T01:48:41.069Z,99604.41
2022-08-03T01:51:11.777Z,99595.34
2022-08-03T01:53:42.964Z,99601.94
2022-08-03T01:56:11.732Z,99608.09
2022-08-03T01:58:42.116Z,99608.56
2022-08-03T02:01:13.821Z,99607.50
2022-08-03T02:03:53.526Z,99605.03
2022-08-03T02:07:00.668Z,99609.78
2022-08-03T02:09:22.908Z,99613.53
2022-08-03T02:11:53.486Z,99618.50
2022-08-03T02:14:23.457Z,99620.13
2022-08-03T02:16:54.236Z,99616.63
2022-08-03T02:19:23.177Z,99622.00
2022-08-03T02:21:57.448Z,99616.44
2022-08-03T02:24:30.166Z,99612.72
2022-08-03T02:27:00.585Z,99622.66
2022-08-03T02:29:39.159Z,99610.66
2022-08-03T02:32:15.667Z,99610.66
2022-08-03T02:34:48.202Z,99609.88
2022-08-03T02:37:19.670Z,99615.22
2022-08-03T02:39:49.307Z,99617.28
2022-08-03T02:42:21.133Z,99612.75
2022-08-03T02:44:54.612Z,99621.41
2022-08-03T02:47:26.073Z,99618.50
2022-08-03T02:49:58.636Z,99620.16
2022-08-03T02:52:30.052Z,99622.25
2022-08-03T02:55:01.050Z,99623.47
2022-08-03T02:57:32.900Z,99623.06
2022-08-03T03:00:02.359Z,99623.88
2022-08-03T03:02:33.351Z,99618.91
2022-08-03T03:05:54.804Z,99632.31
2022-08-03T03:07:53.202Z,99632.53
2022-08-03T03:10:24.189Z,99634.81
2022-08-03T03:12:54.674Z,99631.31
2022-08-03T03:15:23.761Z,99626.78
2022-08-03T03:17:54.821Z,99627.19
2022-08-03T03:20:29.096Z,99625.75
2022-08-03T03:23:00.722Z,99628.44
2022-08-03T03:25:30.185Z,99624.72
2022-08-03T03:27:59.134Z,99635.03
2022-08-03T03:30:27.747Z,99636.69
2022-08-03T03:32:58.728Z,99631.72
2022-08-03T03:35:28.368Z,99630.91
2022-08-03T03:37:56.764Z,99639.19
2022-08-03T03:40:25.528Z,99638.75
2022-08-03T03:42:53.809Z,99629.66
2022-08-03T03:45:23.799Z,99633.19
2022-08-03T03:47:52.412Z,99628.03
2022-08-03T03:50:24.035Z,99635.03
2022-08-03T03:52:52.470Z,99629.47
2022-08-03T03:55:20.720Z,99634.19
2022-08-03T03:57:49.013Z,99636.88
2022-08-03T04:00:19.686Z,99632.53
2022-08-03T04:02:48.475Z,99631.53
2022-08-03T04:05:34.989Z,99637.47
2022-08-03T04:08:28.123Z,99632.94
2022-08-03T04:11:08.635Z,99630.28
2022-08-03T04:13:39.914Z,99636.66
2022-08-03T04:16:10.536Z,99640.13
2022-08-03T04:18:41.661Z,99646.94
2022-08-03T04:21:12.680Z,99637.44
2022-08-03T04:23:47.381Z,99640.94
2022-08-03T04:26:20.909Z,99643.25
2022-08-03T04:28:51.460Z,99638.03
2022-08-03T04:31:23.266Z,99639.06
2022-08-03T04:33:53.836Z,99636.78
2022-08-03T04:36:26.158Z,99634.72
2022-08-03T04:39:04.885Z,99644.41
2022-08-03T04:42:02.202Z,99642.31
2022-08-03T04:44:28.343Z,99638.44
2022-08-03T04:46:58.260Z,99639.84
2022-08-03T04:49:28.220Z,99639.84
2022-08-03T04:51:56.706Z,99637.75
2022-08-03T04:54:26.455Z,99642.47
2022-08-03T04:56:54.833Z,99648.03
2022-08-03T04:59:23.154Z,99640.59
2022-08-03T05:01:51.446Z,99643.28
2022-08-03T05:04:20.674Z,99640.13
2022-08-03T05:06:48.944Z,99647.38
2022-08-03T05:09:50.066Z,99643.06
2022-08-03T05:12:13.955Z,99653.44
2022-08-03T05:14:42.373Z,99655.44
2022-08-03T05:17:10.699Z,99650.28
2022-08-03T05:19:39.013Z,99648.19
2022-08-03T05:22:07.336Z,99650.44
2022-08-03T05:24:35.622Z,99652.91
2022-08-03T05:27:03.869Z,99649.22
2022-08-03T05:29:34.591Z,99656.84
2022-08-03T05:32:08.086Z,99662.38
2022-08-03T05:34:36.846Z,99666.28
2022-08-03T05:37:05.148Z,99673.13
2022-08-03T05:39:33.395Z,99670.22
2022-08-03T05:42:02.275Z,99673.75
2022-08-03T05:44:31.822Z,99679.34
2022-08-03T05:47:01.504Z,99685.34
2022-08-03T05:49:29.827Z,99690.09
2022-08-03T05:52:00.200Z,99685.16
2022-08-03T05:54:57.425Z,99687.84
2022-08-03T05:57:26.185Z,99690.53
2022-08-03T05:59:58.090Z,99693.41
2022-08-03T06:02:28.964Z,99691.13
2022-08-03T06:04:57.363Z,99690.94
2022-08-03T06:07:25.724Z,99693.63
2022-08-03T06:10:34.132Z,99699.19
2022-08-03T06:12:42.546Z,99696.34
2022-08-03T06:15:11.824Z,99702.13
2022-08-03T06:17:48.370Z,99700.28
2022-08-03T06:20:18.690Z,99703.78
2022-08-03T06:22:50.790Z,99709.16
2022-08-03T06:25:28.981Z,99708.75
2022-08-03T06:27:57.383Z,99715.34
2022-08-03T06:30:25.905Z,99711.22
2022-08-03T06:32:55.579Z,99720.72
2022-08-03T06:35:24.063Z,99714.50
2022-08-03T06:37:53.141Z,99718.25
2022-08-03T06:40:29.199Z,99723.63
2022-08-03T06:42:57.726Z,99722.00
2022-08-03T06:45:26.332Z,99722.00
2022-08-03T06:48:06.779Z,99723.84
2022-08-03T06:50:36.616Z,99720.72
2022-08-03T06:53:05.774Z,99729.41
2022-08-03T06:55:33.831Z,99726.56
2022-08-03T06:58:10.732Z,99726.56
2022-08-03T07:00:39.104Z,99727.78
2022-08-03T07:03:08.824Z,99729.41
2022-08-03T07:05:37.201Z,99733.75
2022-08-03T07:08:05.903Z,99741.22
2022-08-03T07:10:34.178Z,99733.31
2022-08-03T07:13:02.452Z,99741.00
2022-08-03T07:15:53.715Z,99738.91
2022-08-03T07:18:27.564Z,99739.75
2022-08-03T07:20:58.420Z,99740.16
2022-08-03T07:23:26.898Z,99748.44
2022-08-03T07:25:55.222Z,99744.28
2022-08-03T07:28:23.502Z,99752.97
2022-08-03T07:30:52.060Z,99746.34
2022-08-03T07:33:21.696Z,99746.75
2022-08-03T07:35:50.077Z,99744.69
2022-08-03T07:38:21.077Z,99754.41
2022-08-03T07:40:49.748Z,99746.75
2022-08-03T07:43:18.083Z,99758.34
2022-08-03T07:45:46.402Z,99752.13
2022-08-03T07:48:14.660Z,99753.78
2022-08-03T07:50:44.548Z,99754.41
2022-08-03T07:53:12.805Z,99753.78
2022-08-03T07:55:41.301Z,99754.19
2022-08-03T07:58:12.667Z,99754.41
2022-08-03T08:00:41.265Z,99759.56
2022-08-03T08:03:10.256Z,99765.78
2022-08-03T08:05:38.557Z,99759.78
2022-08-03T08:08:08.350Z,99770.53
2022-08-03T08:10:36.949Z,99765.56
2022-08-03T08:13:06.096Z,99768.25
2022-08-03T08:15:34.207Z,99771.78
2022-08-03T08:18:02.977Z,99768.25
2022-08-03T08:20:34.959Z,99771.56
2022-08-03T08:23:35.453Z,99767.84
2022-08-03T08:25:57.941Z,99769.94
2022-08-03T08:28:32.808Z,99770.94
2022-08-03T08:31:01.816Z,99772.59
2022-08-03T08:33:47.837Z,99781.50
2022-08-03T08:36:19.084Z,99771.56
2022-08-03T08:38:49.201Z,99776.53
2022-08-03T08:41:17.740Z,99778.41
2022-08-03T08:43:46.045Z,99775.28
2022-08-03T08:46:23.286Z,99774.91
2022-08-03T08:48:54.315Z,99775.28
2022-08-03T08:51:24.073Z,99773.22
2022-08-03T08:54:15.002Z,99773.22
2022-08-03T08:56:45.071Z,99765.16
2022-08-03T08:59:13.566Z,99768.25
2022-08-03T09:01:41.830Z,99769.91
2022-08-03T09:04:10.703Z,99769.69
2022-08-03T09:06:38.976Z,99770.75
2022-08-03T09:09:08.416Z,99761.22
2022-08-03T09:11:53.692Z,99768.47
2022-08-03T09:14:36.586Z,99760.41
2022-08-03T09:17:16.989Z,99768.47
2022-08-03T09:20:06.395Z,99766.59
2022-08-03T09:22:34.708Z,99763.09
2022-08-03T09:25:23.814Z,99769.72
2022-08-03T09:27:54.704Z,99774.84
2022-08-03T09:30:34.789Z,99775.72
2022-08-03T09:33:04.293Z,99773.84
2022-08-03T09:35:52.977Z,99773.63
2022-08-03T09:38:24.293Z,99776.53
2022-08-03T09:40:56.020Z,99776.72
2022-08-03T09:43:29.642Z,99779.81
2022-08-03T09:46:04.624Z,99772.78
2022-08-03T09:48:35.144Z,99774.84
2022-08-03T09:51:13.611Z,99774.84
2022-08-03T09:54:00.336Z,99777.13
2022-08-03T09:56:40.465Z,99772.41
2022-08-03T09:59:10.824Z,99772.59
2022-08-03T10:01:42.020Z,99777.97
2022-08-03T10:04:16.921Z,99771.75
2022-08-03T10:06:46.391Z,99772.16
2022-08-03T10:09:16.633Z,99782.72
2022-08-03T10:11:47.044Z,99785.19
2022-08-03T10:14:20.090Z,99786.22
2022-08-03T10:16:49.600Z,99785.19
2022-08-03T10:19:18.553Z,99794.50
2022-08-03T10:21:51.287Z,99788.28
2022-08-03T10:24:26.424Z,99787.69
2022-08-03T10:27:02.488Z,99785.41
2022-08-03T10:29:36.128Z,99794.72
2022-08-03T10:32:10.638Z,99788.91
2022-08-03T10:34:44.662Z,99782.31
2022-08-03T10:37:16.778Z,99788.50
2022-08-03T10:39:54.448Z,99785.19
2022-08-03T10:42:26.390Z,99785.00
2022-08-03T10:45:02.500Z,99780.66
2022-08-03T10:47:31.820Z,99786.03
2022-08-03T10:50:01.263Z,99777.16
2022-08-03T10:52:33.799Z,99776.53
2022-08-03T10:55:48.262Z,99772.00
2022-08-03T10:58:30.341Z,99781.06
2022-08-03T11:01:00.593Z,99778.38
2022-08-03T11:03:28.888Z,99786.66
2022-08-03T11:06:17.598Z,99788.91
2022-08-03T11:08:46.663Z,99790.19
2022-08-03T11:11:28.740Z,99795.56
2022-08-03T11:14:03.321Z,99784.81
2022-08-03T11:16:35.751Z,99788.53
2022-08-03T11:19:07.812Z,99790.38
2022-08-03T11:21:58.230Z,99785.44
2022-08-03T11:24:59.902Z,99784.81
2022-08-03T11:27:32.947Z,99786.03
2022-08-03T11:30:03.700Z,99786.44
2022-08-03T11:33:01.783Z,99786.44
2022-08-03T11:35:31.914Z,99780.47
2022-08-03T11:38:05.808Z,99785.63
2022-08-03T11:40:35.709Z,99794.50
2022-08-03T11:43:04.938Z,99782.13
2022-08-03T11:45:33.292Z,99789.13
2022-08-03T11:48:14.937Z,99781.28
2022-08-03T11:50:45.381Z,99792.25
2022-08-03T11:53:18.368Z,99793.91
2022-08-03T11:55:49.931Z,99794.94
2022-08-03T11:59:17.517Z,99795.56
2022-08-03T12:01:10.746Z,99785.41
2022-08-03T12:03:40.539Z,99781.47
2022-08-03T12:06:11.353Z,99777.53
2022-08-03T12:08:40.336Z,99785.00
2022-08-03T12:11:10.729Z,99787.28
2022-08-03T12:14:44.816Z,99786.66
2022-08-03T12:16:29.827Z,99779.44
2022-08-03T12:19:01.341Z,99774.25
2022-08-03T12:21:30.545Z,99781.91
2022-08-03T12:24:00.566Z,99780.22
2022-08-03T12:26:30.486Z,99782.31
2022-08-03T12:28:58.873Z,99776.09
2022-08-03T12:31:27.479Z,99774.47
2022-08-03T12:34:05.210Z,99757.28
2022-08-03T12:36:35.453Z,99768.66
2022-08-03T12:39:06.476Z,99765.78
2022-08-03T12:41:36.657Z,99755.84
2022-08-03T12:44:06.591Z,99761.66
2022-08-03T12:46:36.726Z,99752.94
2022-08-03T12:49:11.456Z,99743.44
2022-08-03T12:51:57.271Z,99743.22
2022-08-03T12:54:26.525Z,99745.50
2022-08-03T12:57:02.614Z,99734.13
2022-08-03T12:59:35.392Z,99738.06
2022-08-03T13:02:16.613Z,99732.91
2022-08-03T13:04:48.469Z,99735.16
2022-08-03T13:07:18.400Z,99733.53
2022-08-03T13:09:49.828Z,99728.97
2022-08-03T13:12:20.868Z,99728.56
2022-08-03T13:14:51.970Z,99736.00
2022-08-03T13:17:21.168Z,99733.47
2022-08-03T13:19:51.601Z,99724.81
2022-08-03T13:22:21.896Z,99725.66
2022-08-03T13:24:53.304Z,99721.72
2022-08-03T13:28:01.492Z,99729.78
2022-08-03T13:30:11.194Z,99732.91
2022-08-03T13:32:40.254Z,99740.97
2022-08-03T13:35:10.537Z,99742.00
2022-08-03T13:37:39.365Z,99739.50
2022-08-03T13:40:11.593Z,99746.13
2022-08-03T13:42:40.262Z,99741.59
2022-08-03T13:45:09.391Z,99750.47
2022-08-03T13:47:37.980Z,99756.66
2022-08-03T13:50:06.882Z,99756.28
2022-08-03T13:52:37.420Z,99765.78
2022-08-03T13:55:08.138Z,99762.25
2022-08-03T13:58:02.973Z,99768.25
2022-08-03T14:00:28.972Z,99761.66
2022-08-03T14:03:05.318Z,99764.53
2022-08-03T14:05:39.046Z,99769.47
2022-08-03T14:08:09.152Z,99768.88
2022-08-03T14:10:38.921Z,99773.22
2022-08-03T14:13:07.952Z,99767.84
2022-08-03T14:15:37.284Z,99775.28
2022-08-03T14:18:15.716Z,99778.16
2022-08-03T14:20:57.962Z,99786.03
2022-08-03T14:23:29.386Z,99781.91
2022-08-03T14:25:58.215Z,99785.84
2022-08-03T14:28:26.587Z,99783.56
2022-08-03T14:30:56.290Z,99788.53
2022-08-03T14:33:24.926Z,99790.81
2022-08-03T14:35:53.523Z,99796.19
2022-08-03T14:38:22.441Z,99795.34
2022-08-03T14:40:53.221Z,99795.97
2022-08-03T14:43:21.535Z,99793.06
2022-08-03T14:45:52.427Z,99797.81
2022-08-03T14:50:31.146Z,99788.91
2022-08-03T14:51:10.380Z,99795.34
2022-08-03T14:53:38.667Z,99793.50
2022-08-03T14:56:10.680Z,99788.13
2022-08-03T14:58:39.711Z,99791.22
2022-08-03T15:02:03.286Z,99791.81
2022-08-03T15:03:57.160Z,99783.53
2022-08-03T15:06:25.694Z,99778.81
2022-08-03T15:09:24.331Z,99780.47
2022-08-03T15:11:44.458Z,99775.09
2022-08-03T15:14:13.534Z,99781.06
2022-08-03T15:16:43.625Z,99785.00
2022-08-03T15:20:00.773Z,99781.47
2022-08-03T15:22:01.033Z,99778.16
2022-08-03T15:24:30.416Z,99780.44
2022-08-03T15:27:00.303Z,99785.19
2022-08-03T15:30:09.550Z,99780.84
2022-08-03T15:32:17.138Z,99790.97
2022-08-03T15:34:50.363Z,99789.34
2022-08-03T15:37:20.897Z,99786.03
2022-08-03T15:39:58.844Z,99783.34
2022-08-03T15:42:31.344Z,99784.38
2022-08-03T15:44:59.901Z,99782.72
2022-08-03T15:47:28.417Z,99782.72
2022-08-03T15:49:56.848Z,99783.13
2022-08-03T15:52:25.163Z,99780.66
2022-08-03T15:54:53.510Z,99775.91
2022-08-03T15:57:22.657Z,99776.31
2022-08-03T15:59:53.179Z,99773.63
2022-08-03T16:02:21.596Z,99770.34
2022-08-03T16:04:49.876Z,99760.03
2022-08-03T16:07:38.167Z,99766.84
2022-08-03T16:10:07.100Z,99767.88
2022-08-03T16:12:35.442Z,99772.00
2022-08-03T16:15:05.574Z,99779.00
2022-08-03T16:17:33.944Z,99778.63
2022-08-03T16:20:04.161Z,99778.41
2022-08-03T16:22:44.319Z,99782.13
2022-08-03T16:25:16.379Z,99785.22
2022-08-03T16:28:07.362Z,99793.50
2022-08-03T16:30:35.021Z,99787.31
2022-08-03T16:33:04.039Z,99783.00
2022-08-03T16:35:32.716Z,99798.88
2022-08-03T16:38:01.033Z,99792.69
2022-08-03T16:40:29.414Z,99802.16
2022-08-03T16:42:57.667Z,99797.84
2022-08-03T16:45:26.295Z,99806.31
2022-08-03T16:48:05.139Z,99810.47
2022-08-03T16:50:35.552Z,99812.50
2022-08-03T16:53:09.039Z,99815.00
2022-08-03T16:55:48.387Z,99815.41
2022-08-03T16:58:34.627Z,99815.22
2022-08-03T17:01:10.842Z,99813.56
2022-08-03T17:04:02.340Z,99813.75
2022-08-03T17:06:34.355Z,99818.34
2022-08-03T17:09:04.087Z,99808.38
2022-08-03T17:11:43.068Z,99814.22
2022-08-03T17:14:15.628Z,99819.59
2022-08-03T17:16:51.876Z,99820.81
2022-08-03T17:19:23.510Z,99822.69
2022-08-03T17:22:01.190Z,99833.22
2022-08-03T17:24:41.105Z,99832.38
2022-08-03T17:27:18.618Z,99833.22
2022-08-03T17:30:07.524Z,99839.81
2022-08-03T17:32:42.796Z,99840.66
2022-08-03T17:35:12.730Z,99847.69
2022-08-03T17:37:58.363Z,99859.25
2022-08-03T17:40:32.286Z,99852.63
2022-08-03T17:43:00.595Z,99863.19
2022-08-03T17:45:52.551Z,99858.84
2022-08-03T17:48:18.541Z,99864.00
2022-08-03T17:50:54.393Z,99871.84
2022-08-03T17:53:30.768Z,99859.66
2022-08-03T17:56:38.832Z,99862.16
2022-08-03T17:59:08.393Z,99865.03
2022-08-03T18:02:09.516Z,99865.88
2022-08-03T18:04:55.484Z,99869.16
2022-08-03T18:07:41.147Z,99870.22
2022-08-03T18:10:11.305Z,99873.94
2022-08-03T18:12:51.981Z,99872.06
2022-08-03T18:15:26.415Z,99876.00
2022-08-03T18:18:01.853Z,99868.78
2022-08-03T18:20:41.088Z,99878.69
2022-08-03T18:26:04.916Z,99884.28
2022-08-03T18:28:35.097Z,99878.28
2022-08-03T18:31:05.918Z,99877.22
2022-08-03T18:34:32.422Z,99878.28
2022-08-03T18:36:30.127Z,99879.53
2022-08-03T18:39:02.705Z,99887.38
2022-08-03T18:41:34.333Z,99880.31
2022-08-03T18:44:08.469Z,99888.19
2022-08-03T18:47:16.112Z,99883.00
2022-08-03T18:49:53.977Z,99880.97
2022-08-03T18:52:30.655Z,99884.06
2022-08-03T18:55:19.778Z,99876.41
2022-08-03T18:57:56.590Z,99885.31
2022-08-03T19:00:42.643Z,99879.09
2022-08-03T19:03:20.446Z,99882.81
2022-08-03T19:06:02.281Z,99889.44
2022-08-03T19:08:42.449Z,99886.94
2022-08-03T19:11:22.400Z,99879.50
2022-08-03T19:13:59.710Z,99878.28
2022-08-03T19:16:35.806Z,99867.94
2022-08-03T19:19:11.045Z,99879.50
2022-08-03T19:21:43.255Z,99880.53
2022-08-03T19:24:14.698Z,99875.81
2022-08-03T19:26:48.616Z,99873.53
2022-08-03T19:29:24.434Z,99879.50
2022-08-03T19:32:16.070Z,99880.34
2022-08-03T19:34:46.703Z,99877.88
2022-08-03T19:37:15.777Z,99882.19
2022-08-03T19:39:44.667Z,99878.69
2022-08-03T19:42:32.737Z,99876.22
2022-08-03T19:45:11.466Z,99872.06
2022-08-03T19:47:47.290Z,99874.75
2022-08-03T19:50:17.248Z,99877.44
2022-08-03T19:52:48.795Z,99868.97
2022-08-03T19:55:18.721Z,99872.50
2022-08-03T19:57:53.789Z,99866.28
2022-08-03T20:00:26.476Z,99870.84
2022-08-03T20:02:59.496Z,99870.84
2022-08-03T20:05:29.774Z,99877.25
2022-08-03T20:08:15.310Z,99872.50
2022-08-03T20:10:50.073Z,99880.34
2022-08-03T20:13:21.431Z,99875.00
2022-08-03T20:15:56.777Z,99879.31
2022-08-03T20:18:25.455Z,99879.94
2022-08-03T20:20:58.703Z,99882.63
2022-08-03T20:23:37.200Z,99886.34
2022-08-03T20:26:07.664Z,99881.16
2022-08-03T20:28:50.335Z,99882.22
2022-08-03T20:31:23.836Z,99882.41
2022-08-03T20:34:01.707Z,99883.03
2022-08-03T20:36:30.292Z,99885.31
2022-08-03T20:38:58.864Z,99883.25
2022-08-03T20:41:28.100Z,99876.63
2022-08-03T20:44:01.116Z,99875.00
2022-08-03T20:46:38.511Z,99867.53
2022-08-03T20:49:21.358Z,99872.31
2022-08-03T20:51:53.220Z,99866.28
2022-08-03T20:54:31.122Z,99876.63
2022-08-03T20:57:04.270Z,99871.25
2022-08-03T20:59:50.338Z,99872.31
2022-08-03T21:02:30.158Z,99867.94
2022-08-03T21:05:03.574Z,99878.69
2022-08-03T21:08:03.915Z,99872.06
2022-08-03T21:10:30.742Z,99881.19
2022-08-03T21:12:57.899Z,99873.31
2022-08-03T21:13:16.208Z,99876.84
2022-08-03T21:16:12.868Z,99870.44
2022-08-03T21:18:41.857Z,99872.28
2022-08-03T21:21:15.116Z,99875.38
2022-08-03T21:23:48.847Z,99879.53
2022-08-03T21:26:18.837Z,99873.13
2022-08-03T21:28:48.739Z,99875.19
2022-08-03T21:31:23.678Z,99877.84
2022-08-03T21:33:55.171Z,99877.06
2022-08-03T21:36:23.434Z,99868.78
2022-08-03T21:38:55.929Z,99877.84
2022-08-03T21:41:26.043Z,99877.84
2022-08-03T21:43:54.062Z,99879.53
2022-08-03T21:46:24.936Z,99884.91
2022-08-03T21:50:05.215Z,99876.44
2022-08-03T21:51:46.364Z,99877.84
2022-08-03T21:54:14.785Z,99880.75
2022-08-03T21:56:44.575Z,99881.59
2022-08-03T21:59:18.801Z,99878.28
2022-08-03T22:01:51.493Z,99883.63
2022-08-03T22:04:50.070Z,99882.00
2022-08-03T22:07:13.017Z,99883.25
2022-08-03T22:09:50.231Z,99880.75
2022-08-03T22:12:23.858Z,99882.41
2022-08-03T22:14:59.961Z,99877.88
2022-08-03T22:17:53.899Z,99880.75
2022-08-03T22:20:22.427Z,99877.00
2022-08-03T22:22:55.923Z,99888.19
2022-08-03T22:25:29.084Z,99886.13
2022-08-03T22:27:59.253Z,99887.16
2022-08-03T22:30:28.160Z,99899.75
2022-08-03T22:32:59.108Z,99889.84
2022-08-03T22:35:28.559Z,99901.41
2022-08-03T22:37:58.506Z,99907.63
2022-08-03T22:40:28.872Z,99902.25
2022-08-03T22:42:58.502Z,99900.59
2022-08-03T22:46:07.648Z,99898.50
2022-08-03T22:48:18.111Z,99896.88
2022-08-03T22:50:47.614Z,99899.34
2022-08-03T22:53:20.286Z,99901.00
2022-08-03T22:55:49.433Z,99901.84
2022-08-03T22:58:18.431Z,99903.88
2022-08-03T23:00:54.081Z,99907.63
2022-08-03T23:03:59.981Z,99906.38
2022-08-03T23:06:17.937Z,99901.00
2022-08-03T23:08:48.893Z,99899.56
2022-08-03T23:11:19.097Z,99910.31
2022-08-03T23:13:49.617Z,99900.59
2022-08-03T23:16:29.033Z,99904.09
2022-08-03T23:19:16.999Z,99906.56
2022-08-03T23:22:00.172Z,99905.56
2022-08-03T23:24:31.115Z,99896.88
2022-08-03T23:26:59.667Z,99893.56
2022-08-03T23:29:30.065Z,99891.50
2022-08-03T23:31:59.673Z,99891.72
2022-08-03T23:34:46.870Z,99893.56
2022-08-03T23:37:16.048Z,99886.13
2022-08-03T23:39:47.380Z,99895.22
2022-08-03T23:42:18.548Z,99890.88
2022-08-03T23:44:47.631Z,99899.34
2022-08-03T23:47:16.388Z,99901.84
2022-08-03T23:49:46.147Z,99899.34
2022-08-03T23:52:24.196Z,99900.81
2022-08-03T23:55:04.293Z,99901.38
2022-08-03T23:57:41.801Z,99898.31
